Time;durP1;ratioP1;P1;durP2;ratioP2;P2;SDS_P1;SDS_P2;PMS_P1;PMS_P2;Temp;Humidity;BMP_temperature;BMP_pressure;BME280_temperature;BME280_humidity;BME280_pressure;Samples;Min_cycle;Max_cycle;Signal;HPM_P1;HPM_P2
2021/11/16 00:00:39;;;;;;;81.85;43.38;;;;;;;5.48;94.79;101256.98;1812271;77;21508;-89
2021/11/16 00:03:06;;;;;;;82.20;42.75;;;;;;;5.47;94.80;101256.59;1815248;78;21017;-89
2021/11/16 00:05:32;;;;;;;77.95;43.38;;;;;;;5.47;94.82;101255.74;1817165;78;21516;-89
2021/11/16 00:07:59;;;;;;;81.60;41.95;;;;;;;5.46;94.77;101253.55;1807947;78;21727;-89
2021/11/16 00:10:26;;;;;;;83.45;41.73;;;;;;;5.45;94.75;101249.23;1817562;78;20946;-89
2021/11/16 00:12:52;;;;;;;79.65;43.00;;;;;;;5.45;94.80;101254.47;1814385;78;20943;-90
2021/11/16 00:15:18;;;;;;;82.92;43.20;;;;;;;5.45;94.82;101252.31;1821279;78;21595;-89
2021/11/16 00:17:44;;;;;;;80.00;42.30;;;;;;;5.43;94.76;101245.84;1816968;78;21276;-89
2021/11/16 00:20:12;;;;;;;83.35;38.83;;;;;;;5.42;94.83;101240.19;1809583;78;20969;-89
2021/11/16 00:22:41;;;;;;;90.22;41.83;;;;;;;5.41;94.76;101251.58;1820075;77;21340;-89
2021/11/16 00:27:42;;;;;;;87.97;42.00;;;;;;;5.37;94.83;101253.91;1815616;78;21028;-89
2021/11/16 00:30:10;;;;;;;88.10;42.67;;;;;;;5.37;94.93;101255.22;1833145;77;21027;-89
2021/11/16 00:32:37;;;;;;;84.40;41.63;;;;;;;5.35;95.01;101251.79;1851846;76;21031;-89
2021/11/16 00:35:05;;;;;;;88.95;44.05;;;;;;;5.36;95.08;101254.80;1851313;76;20996;-89
2021/11/16 00:37:32;;;;;;;79.95;41.13;;;;;;;5.35;95.05;101264.42;1853898;76;20977;-89
2021/11/16 00:40:01;;;;;;;84.28;42.95;;;;;;;5.36;95.12;101262.22;1852427;76;21424;-89
2021/11/16 00:42:29;;;;;;;91.72;43.45;;;;;;;5.38;95.23;101262.16;1857421;76;20965;-89
2021/11/16 00:44:56;;;;;;;90.97;43.87;;;;;;;5.40;95.18;101266.43;1864009;76;20988;-89
2021/11/16 00:47:23;;;;;;;87.60;43.35;;;;;;;5.41;95.17;101263.35;1853741;76;20952;-89
2021/11/16 00:49:51;;;;;;;87.27;43.28;;;;;;;5.41;95.07;101262.05;1844336;77;20945;-89
2021/11/16 00:52:17;;;;;;;87.53;43.63;;;;;;;5.40;95.09;101264.27;1856470;76;21002;-89
2021/11/16 00:54:44;;;;;;;88.80;42.05;;;;;;;5.39;95.10;101254.23;1849955;76;21038;-89
2021/11/16 00:57:10;;;;;;;93.78;44.18;;;;;;;5.40;95.14;101253.80;1855505;76;20944;-89
2021/11/16 00:59:36;;;;;;;91.67;45.78;;;;;;;5.39;95.14;101254.23;1850569;76;20990;-89
2021/11/16 01:02:02;;;;;;;87.37;45.38;;;;;;;5.39;95.17;101252.92;1877545;76;21315;-89
2021/11/16 01:04:28;;;;;;;82.00;43.80;;;;;;;5.40;95.13;101259.04;1862573;76;20974;-90
2021/11/16 01:06:55;;;;;;;89.22;44.85;;;;;;;5.40;95.22;101257.73;1851849;77;20989;-89
2021/11/16 01:09:22;;;;;;;90.07;45.30;;;;;;;5.41;95.30;101255.50;1847823;76;21457;-89
2021/11/16 01:11:49;;;;;;;94.40;46.37;;;;;;;5.44;95.29;101256.70;1853297;76;20937;-89
2021/11/16 01:14:15;;;;;;;83.95;43.48;;;;;;;5.45;95.17;101254.93;1852088;76;21487;-89
2021/11/16 01:16:41;;;;;;;93.90;44.58;;;;;;;5.44;95.10;101254.08;1847246;76;21046;-89
2021/11/16 01:19:09;;;;;;;94.05;45.52;;;;;;;5.43;95.12;101247.15;1854588;76;21474;-89
2021/11/16 01:21:37;;;;;;;90.70;43.40;;;;;;;5.42;95.08;101240.19;1864432;76;20946;-89
2021/11/16 01:24:05;;;;;;;93.55;45.43;;;;;;;5.39;95.12;101241.14;1858157;76;20947;-89
2021/11/16 01:26:32;;;;;;;93.33;44.50;;;;;;;5.38;95.15;101231.59;1851065;77;21000;-89
2021/11/16 01:28:59;;;;;;;91.95;43.20;;;;;;;5.38;95.15;101229.44;1853152;76;22193;-89
2021/11/16 01:31:27;;;;;;;94.60;47.48;;;;;;;5.37;95.21;101237.75;1827910;76;21042;-89
2021/11/16 01:34:00;;;;;;;89.65;43.87;;;;;;;5.35;95.27;101238.25;1854072;76;20969;-89
2021/11/16 01:36:22;;;;;;;97.50;43.45;;;;;;;5.36;95.30;101231.24;1850716;76;20989;-89
2021/11/16 01:38:51;;;;;;;90.25;43.42;;;;;;;5.36;95.34;101232.55;1859172;76;20953;-89
2021/11/16 01:41:19;;;;;;;89.87;46.33;;;;;;;5.37;95.34;101231.66;1848776;76;21061;-89
2021/11/16 01:43:46;;;;;;;85.60;45.40;;;;;;;5.37;95.34;101235.59;1852549;76;20964;-89
2021/11/16 01:46:16;;;;;;;92.40;43.08;;;;;;;5.36;95.36;101227.31;1858053;76;20974;-89
2021/11/16 01:48:48;;;;;;;84.00;40.48;;;;;;;5.34;95.33;101224.77;1859057;76;21012;-89
2021/11/16 01:51:15;;;;;;;89.30;42.60;;;;;;;5.31;95.29;101220.11;1855013;76;21459;-89
2021/11/16 01:53:42;;;;;;;87.88;42.80;;;;;;;5.30;95.34;101226.26;1842763;76;21003;-89
2021/11/16 01:56:08;;;;;;;92.95;46.18;;;;;;;5.28;95.46;101224.98;1861121;75;20955;-89
2021/11/16 01:58:34;;;;;;;88.40;43.85;;;;;;;5.28;95.48;101218.91;1866275;76;20965;-89
2021/11/16 02:01:03;;;;;;;90.03;44.33;;;;;;;5.26;95.57;101223.33;1866325;76;20923;-89
2021/11/16 02:03:29;;;;;;;91.22;45.08;;;;;;;5.26;95.66;101218.95;1850052;76;21519;-89
2021/11/16 02:06:16;;;;;;;90.45;46.92;;;;;;;5.27;95.64;101222.44;1859624;76;20951;-90
2021/11/16 02:08:41;;;;;;;95.12;45.17;;;;;;;5.24;95.71;101220.78;1865053;76;21030;-90
2021/11/16 02:11:07;;;;;;;86.82;45.52;;;;;;;5.26;95.69;101219.41;1859641;76;21426;-89
2021/11/16 02:13:33;;;;;;;98.03;49.03;;;;;;;5.23;95.60;101224.32;1857668;76;20974;-89
2021/11/16 02:16:00;;;;;;;99.00;46.68;;;;;;;5.21;95.69;101221.35;1856996;76;21430;-89
2021/11/16 02:18:26;;;;;;;99.95;46.15;;;;;;;5.20;95.80;101220.93;1861748;76;20982;-89
2021/11/16 02:20:53;;;;;;;95.42;46.48;;;;;;;5.16;95.82;101218.42;1861885;76;20929;-89
2021/11/16 02:23:20;;;;;;;110.25;47.62;;;;;;;5.15;95.89;101217.19;1845189;76;20928;-89
2021/11/16 02:25:48;;;;;;;98.55;47.73;;;;;;;5.15;95.99;101224.58;1860992;76;20998;-89
2021/11/16 02:28:17;;;;;;;103.85;49.13;;;;;;;5.14;96.04;101220.26;1856682;76;21004;-89
2021/11/16 02:30:44;;;;;;;107.05;52.73;;;;;;;5.13;96.14;101213.33;1837100;76;20945;-90
2021/11/16 02:33:10;;;;;;;98.75;51.30;;;;;;;5.13;96.18;101214.64;1842339;76;21487;-90
2021/11/16 02:35:36;;;;;;;113.28;51.92;;;;;;;5.13;96.21;101209.41;1834238;76;20990;-89
2021/11/16 02:38:03;;;;;;;113.60;53.05;;;;;;;5.14;96.27;101218.95;1844235;76;20995;-89
2021/11/16 02:40:30;;;;;;;106.37;51.65;;;;;;;5.15;96.30;101212.80;1842623;76;20944;-89
2021/11/16 02:42:56;;;;;;;112.30;51.48;;;;;;;5.15;96.26;101210.18;1846382;76;20959;-89
2021/11/16 02:45:23;;;;;;;122.55;52.73;;;;;;;5.16;96.25;101212.34;1835844;76;21019;-90
2021/11/16 02:47:50;;;;;;;117.90;56.92;;;;;;;5.14;96.33;101207.17;1841290;76;21498;-89
2021/11/16 02:50:19;;;;;;;120.45;53.52;;;;;;;5.16;96.37;101209.27;1842654;76;20934;-89
2021/11/16 02:52:45;;;;;;;118.75;53.87;;;;;;;5.14;96.31;101204.56;1840137;76;20975;-89
2021/11/16 02:55:11;;;;;;;120.55;52.45;;;;;;;5.15;96.39;101208.02;1845828;76;20981;-89
2021/11/16 02:57:38;;;;;;;107.17;51.30;;;;;;;5.13;96.39;101202.86;1833885;76;21006;-89
2021/11/16 03:00:08;;;;;;;109.75;52.67;;;;;;;5.13;96.39;101198.94;1845868;77;20968;-89
2021/11/16 03:02:34;;;;;;;117.42;53.30;;;;;;;5.13;96.36;101201.55;1821202;76;21544;-89
2021/11/16 03:05:01;;;;;;;118.50;54.53;;;;;;;5.13;96.40;101202.86;1840348;76;20958;-89
2021/11/16 03:07:44;;;;;;;120.55;55.20;;;;;;;5.12;96.45;101195.05;1828253;78;21016;-89
2021/11/16 03:10:09;;;;;;;111.05;54.13;;;;;;;5.12;96.54;101193.75;1820078;78;21048;-89
2021/11/16 03:12:37;;;;;;;122.55;55.45;;;;;;;5.13;96.60;101195.02;1817296;78;21488;-89
2021/11/16 03:15:04;;;;;;;116.80;57.08;;;;;;;5.15;96.63;101194.94;1837145;78;21468;-89
2021/11/16 03:17:31;;;;;;;126.82;57.45;;;;;;;5.16;96.56;101200.11;1835401;78;20989;-89
2021/11/16 03:19:57;;;;;;;116.33;53.05;;;;;;;5.15;96.58;101191.87;1831556;78;20953;-89
2021/11/16 03:22:33;;;;;;;115.90;54.95;;;;;;;5.15;96.64;101195.80;1837248;78;21530;-90
2021/11/16 03:24:58;;;;;;;113.72;54.60;;;;;;;5.16;96.67;101192.26;1834825;78;21033;-89
2021/11/16 03:27:35;;;;;;;123.15;55.95;;;;;;;5.18;96.78;101190.91;1836078;78;21052;-89
2021/11/16 03:29:59;;;;;;;115.82;54.83;;;;;;;5.20;96.76;101190.41;1820516;77;21519;-89
2021/11/16 03:32:35;;;;;;;114.08;54.93;;;;;;;5.22;96.75;101196.42;1834176;78;20965;-89
2021/11/16 03:34:58;;;;;;;121.07;54.95;;;;;;;5.24;96.69;101196.38;1840931;77;21499;-89
2021/11/16 03:37:25;;;;;;;134.45;57.25;;;;;;;5.25;96.74;101199.39;1840665;77;20945;-89
2021/11/16 03:39:53;;;;;;;110.00;56.00;;;;;;;5.25;96.68;101198.08;1846631;77;21096;-89
2021/11/16 03:42:19;;;;;;;119.15;55.28;;;;;;;5.27;96.67;101201.51;1821158;78;20980;-89
2021/11/16 03:44:46;;;;;;;122.62;52.30;;;;;;;5.27;96.70;101201.51;1837872;78;21045;-89
2021/11/16 03:47:12;;;;;;;122.28;52.88;;;;;;;5.29;96.69;101200.98;1840876;77;21545;-89
2021/11/16 03:49:38;;;;;;;112.97;51.80;;;;;;;5.29;96.64;101197.05;1841405;78;21016;-89
2021/11/16 03:52:04;;;;;;;107.50;49.75;;;;;;;5.31;96.65;101199.17;1828123;77;21012;-89
2021/11/16 03:54:31;;;;;;;118.15;54.67;;;;;;;5.31;96.67;101196.55;1819113;78;20977;-89
2021/11/16 03:57:01;;;;;;;114.20;50.45;;;;;;;5.30;96.67;101187.85;1840551;78;21029;-89
2021/11/16 03:59:25;;;;;;;114.90;48.13;;;;;;;5.31;96.67;101189.55;1840789;77;21068;-90
2021/11/16 04:01:51;;;;;;;107.87;48.28;;;;;;;5.30;96.68;101183.08;1842618;77;21543;-89
2021/11/16 04:04:19;;;;;;;111.50;49.58;;;;;;;5.29;96.71;101179.58;1836578;76;21523;-89
2021/11/16 04:06:46;;;;;;;112.03;51.35;;;;;;;5.29;96.81;101172.19;1807813;79;21021;-89
2021/11/16 04:09:12;;;;;;;113.62;52.62;;;;;;;5.30;96.84;101169.99;1813955;78;21080;-89
2021/11/16 04:11:38;;;;;;;111.15;49.73;;;;;;;5.31;96.90;101168.61;1841620;78;20957;-89
2021/11/16 04:14:04;;;;;;;113.12;47.05;;;;;;;5.32;96.88;101162.91;1840979;77;20973;-89
2021/11/16 04:16:30;;;;;;;110.28;50.73;;;;;;;5.32;96.88;101162.91;1834885;77;21047;-89
2021/11/16 04:18:56;;;;;;;116.05;53.78;;;;;;;5.34;96.87;101168.95;1842416;77;21417;-89
2021/11/16 04:21:22;;;;;;;102.62;47.53;;;;;;;5.33;96.86;101169.42;1842406;77;21387;-89
2021/11/16 04:23:48;;;;;;;106.72;46.75;;;;;;;5.33;96.86;101164.19;1841452;77;21001;-89
2021/11/16 04:26:14;;;;;;;111.08;48.48;;;;;;;5.34;96.92;101165.88;1841131;78;20958;-89
2021/11/16 04:28:40;;;;;;;108.55;49.42;;;;;;;5.35;96.88;101158.42;1820581;77;20997;-89
2021/11/16 04:31:07;;;;;;;100.35;45.48;;;;;;;5.34;96.87;101154.56;1831040;78;21024;-89
2021/11/16 04:33:33;;;;;;;114.10;48.90;;;;;;;5.34;96.89;101150.64;1843281;78;20978;-89
2021/11/16 04:35:59;;;;;;;103.22;46.35;;;;;;;5.32;96.88;101149.83;1841648;77;21457;-89
2021/11/16 04:38:26;;;;;;;99.13;46.63;;;;;;;5.32;97.00;101148.06;1822454;78;20938;-89
2021/11/16 04:40:56;;;;;;;105.05;45.67;;;;;;;5.32;97.04;101143.29;1840483;78;21471;-89
2021/11/16 04:43:25;;;;;;;98.03;43.85;;;;;;;5.33;97.03;101144.98;1834714;78;21406;-89
2021/11/16 04:45:58;;;;;;;92.60;44.98;;;;;;;5.33;97.07;101150.22;1840891;77;21002;-89
2021/11/16 04:48:48;;;;;;;100.75;47.05;;;;;;;5.33;97.05;101152.84;1839657;78;21025;-89
2021/11/16 05:04:35;;;;;;;92.65;44.13;;;;;;;5.31;97.23;101162.53;1841260;78;21046;-89
2021/11/16 05:07:02;;;;;;;91.30;42.43;;;;;;;5.32;97.21;101157.69;1837598;77;20985;-89
2021/11/16 05:09:28;;;;;;;94.95;41.68;;;;;;;5.33;97.27;101163.30;1836432;78;20989;-89
2021/11/16 05:11:55;;;;;;;88.30;42.50;;;;;;;5.32;97.27;101157.22;1842168;76;20989;-89
2021/11/16 05:14:21;;;;;;;98.60;42.85;;;;;;;5.33;97.25;101160.26;1839986;78;21024;-89
2021/11/16 05:16:47;;;;;;;87.15;38.73;;;;;;;5.33;97.25;101156.77;1842695;77;21509;-89
2021/11/16 05:19:13;;;;;;;89.00;41.77;;;;;;;5.32;97.25;101159.84;1839586;78;20996;-89
2021/11/16 05:21:39;;;;;;;86.67;41.42;;;;;;;5.31;97.28;101155.53;1831086;78;20969;-89
2021/11/16 05:24:05;;;;;;;94.28;43.23;;;;;;;5.33;97.34;101163.30;1844237;76;20941;-89
2021/11/16 05:26:31;;;;;;;91.80;44.42;;;;;;;5.34;97.28;101165.03;1826594;78;20976;-89
2021/11/16 05:28:59;;;;;;;88.75;39.03;;;;;;;5.33;97.31;101165.50;1829924;78;20994;-89
2021/11/16 05:31:26;;;;;;;82.57;41.75;;;;;;;5.33;97.33;101165.92;1820691;77;21005;-89
2021/11/16 05:33:54;;;;;;;84.87;39.03;;;;;;;5.32;97.34;101165.53;1810057;78;20968;-89
2021/11/16 05:36:21;;;;;;;93.90;42.20;;;;;;;5.32;97.43;101163.77;1810132;79;21001;-89
2021/11/16 05:38:48;;;;;;;76.77;39.70;;;;;;;5.34;97.43;101167.66;1810448;79;21007;-89
2021/11/16 05:41:16;;;;;;;82.45;38.63;;;;;;;5.32;97.44;101164.23;1810096;79;21000;-89
2021/11/16 05:43:44;;;;;;;95.62;42.78;;;;;;;5.34;97.46;101163.73;1811307;78;20973;-87
2021/11/16 05:46:13;;;;;;;91.67;41.88;;;;;;;5.33;97.46;101158.95;1810101;79;21075;-88
2021/11/16 05:48:41;;;;;;;91.12;41.45;;;;;;;5.33;97.51;101156.77;1810278;79;20973;-88
2021/11/16 05:51:09;;;;;;;86.45;40.52;;;;;;;5.33;97.53;101145.87;1810053;79;21016;-88
2021/11/16 05:53:37;;;;;;;89.42;39.67;;;;;;;5.34;97.61;101146.71;1810253;79;21080;-88
2021/11/16 05:56:04;;;;;;;88.85;41.77;;;;;;;5.33;97.57;101147.60;1815006;78;21068;-87
2021/11/16 05:58:31;;;;;;;94.13;44.00;;;;;;;5.34;97.62;101149.33;1843277;78;21024;-88
2021/11/16 06:00:57;;;;;;;95.15;44.70;;;;;;;5.34;97.60;101140.17;1841369;78;21033;-87
2021/11/16 06:03:23;;;;;;;91.90;42.55;;;;;;;5.35;97.64;101139.25;1842284;78;21464;-88
2021/11/16 06:05:49;;;;;;;87.78;40.98;;;;;;;5.35;97.63;101143.17;1843173;78;20942;-88
2021/11/16 06:08:24;;;;;;;91.37;42.93;;;;;;;5.35;97.67;101147.95;1843440;77;21029;-88
2021/11/16 06:10:51;;;;;;;82.53;38.63;;;;;;;5.36;97.67;101156.65;1843169;77;21044;-88
2021/11/16 06:13:18;;;;;;;86.92;41.25;;;;;;;5.35;97.67;101155.80;1836963;78;21004;-88
2021/11/16 06:15:44;;;;;;;94.55;40.45;;;;;;;5.38;97.77;101158.77;1810102;78;21012;-88
2021/11/16 06:18:11;;;;;;;97.37;43.08;;;;;;;5.41;97.83;101159.50;1810272;79;21463;-88
2021/11/16 06:20:43;;;;;;;93.92;42.73;;;;;;;5.41;97.70;101153.42;1787672;79;21031;-87
2021/11/16 06:23:11;;;;;;;91.08;40.83;;;;;;;5.41;97.66;101152.95;1810597;79;21503;-87
2021/11/16 06:25:41;;;;;;;88.12;41.63;;;;;;;5.41;97.70;101152.11;1810088;78;21494;-87
2021/11/16 06:28:08;;;;;;;101.30;46.55;;;;;;;5.41;97.70;101153.42;1810346;79;20997;-87
2021/11/16 06:30:35;;;;;;;103.05;45.60;;;;;;;5.41;97.75;101163.42;1809917;78;21464;-87
2021/11/16 06:33:02;;;;;;;88.92;41.58;;;;;;;5.42;97.77;101168.20;1810343;79;21024;-88
2021/11/16 06:35:28;;;;;;;94.00;41.13;;;;;;;5.42;97.81;101170.81;1809713;79;21032;-88
2021/11/16 06:37:54;;;;;;;83.47;40.35;;;;;;;5.43;97.84;101171.23;1810452;78;20930;-88
2021/11/16 06:40:21;;;;;;;82.55;39.63;;;;;;;5.43;97.69;101176.47;1810385;79;21032;-88
2021/11/16 06:42:48;;;;;;;76.20;34.05;;;;;;;5.44;97.82;101173.39;1810081;78;21626;-88
2021/11/16 06:45:14;;;;;;;75.12;35.60;;;;;;;5.45;97.69;101163.31;1810124;79;21051;-88
2021/11/16 06:47:41;;;;;;;76.42;38.10;;;;;;;5.45;97.80;101169.86;1810183;79;20977;-88
2021/11/16 06:50:08;;;;;;;76.05;36.25;;;;;;;5.46;97.73;101165.01;1810015;78;21010;-88
2021/11/16 06:52:37;;;;;;;81.15;37.48;;;;;;;5.46;97.73;101172.86;1810240;79;20976;-88
2021/11/16 06:55:06;;;;;;;75.35;37.13;;;;;;;5.44;97.62;101174.24;1809936;79;21036;-88
2021/11/16 06:57:33;;;;;;;84.52;37.78;;;;;;;5.44;97.72;101174.24;1810014;79;20997;-88
2021/11/16 07:00:00;;;;;;;80.32;36.60;;;;;;;5.46;97.79;101167.62;1810174;79;20964;-88
2021/11/16 07:02:27;;;;;;;77.72;36.90;;;;;;;5.47;97.79;101180.67;1809986;78;21441;-88
2021/11/16 07:04:54;;;;;;;79.20;37.80;;;;;;;5.47;97.75;101179.83;1810323;79;21052;-88
2021/11/16 07:07:21;;;;;;;85.77;38.88;;;;;;;5.47;97.68;101179.36;1810131;78;20993;-88
2021/11/16 07:09:47;;;;;;;77.27;37.75;;;;;;;5.48;97.79;101178.45;1810263;79;21470;-88
2021/11/16 07:12:19;;;;;;;77.85;35.35;;;;;;;5.48;97.82;101173.20;1810683;77;21303;-88
2021/11/16 07:14:45;;;;;;;74.10;37.20;;;;;;;5.51;97.93;101179.64;1809320;77;21053;-88
2021/11/16 07:17:16;;;;;;;77.90;39.13;;;;;;;5.52;97.88;101174.79;1834432;76;21012;-88
2021/11/16 07:19:55;;;;;;;79.20;38.83;;;;;;;5.54;97.85;101165.59;1818729;78;21013;-88
2021/11/16 07:22:27;;;;;;;83.03;37.88;;;;;;;5.55;97.89;101169.90;1809966;79;21076;-88
2021/11/16 07:25:05;;;;;;;84.10;36.30;;;;;;;5.57;97.83;101166.78;1810504;79;21515;-88
2021/11/16 07:27:51;;;;;;;73.80;37.17;;;;;;;5.55;97.79;101163.36;1787822;79;21072;-87
2021/11/16 07:30:24;;;;;;;83.87;36.20;;;;;;;5.57;97.85;101162.39;1811095;78;21523;-88
2021/11/16 07:32:59;;;;;;;76.62;36.68;;;;;;;5.55;97.78;101159.43;1821143;79;21131;-88
2021/11/16 07:35:30;;;;;;;84.97;40.55;;;;;;;5.54;97.82;101154.66;1821353;79;20971;-88
2021/11/16 07:38:04;;;;;;;82.33;37.83;;;;;;;5.56;97.90;101152.84;1821416;79;21003;-88
2021/11/16 07:40:32;;;;;;;91.22;38.92;;;;;;;5.54;97.82;101149.42;1821094;77;21545;-88
2021/11/16 07:43:11;;;;;;;79.03;37.65;;;;;;;5.56;97.88;101160.70;1821336;79;21083;-88
2021/11/16 07:45:45;;;;;;;85.28;37.33;;;;;;;5.57;98.00;101159.77;1821255;79;21510;-88
2021/11/16 07:48:18;;;;;;;83.82;39.27;;;;;;;5.59;97.92;101176.29;1820499;79;21604;-88
2021/11/16 07:50:49;;;;;;;72.58;35.03;;;;;;;5.60;97.92;101171.44;1820810;77;21099;-87
2021/11/16 07:53:34;;;;;;;87.50;40.48;;;;;;;5.61;97.82;101172.29;1821227;79;20981;-88
2021/11/16 07:56:15;;;;;;;84.90;40.10;;;;;;;5.60;97.78;101165.36;1821277;78;20977;-88
2021/11/16 07:59:02;;;;;;;78.47;38.85;;;;;;;5.61;97.88;101165.74;1821710;79;20960;-88
2021/11/16 08:01:54;;;;;;;82.02;38.40;;;;;;;5.61;97.83;101161.81;1820885;79;21052;-88
2021/11/16 08:04:31;;;;;;;84.60;36.70;;;;;;;5.63;97.94;101163.47;1843694;77;21345;-88
2021/11/16 08:07:24;;;;;;;72.67;34.95;;;;;;;5.65;97.96;101160.31;1853958;77;21009;-88
2021/11/16 08:09:42;;;;;;;76.22;33.83;;;;;;;5.69;97.95;101150.57;1853999;77;21020;-88
2021/11/16 08:14:46;;;;;;;89.47;40.15;;;;;;;5.75;97.99;101145.55;1854308;77;21001;-88
2021/11/16 08:17:13;;;;;;;84.70;36.77;;;;;;;5.76;98.09;101138.09;1844272;77;20945;-88
2021/11/16 08:19:42;;;;;;;71.80;35.73;;;;;;;5.78;97.86;101141.51;1846797;77;21049;-88
2021/11/16 08:22:12;;;;;;;78.95;36.25;;;;;;;5.79;97.72;101139.27;1847530;77;21014;-88
2021/11/16 08:24:42;;;;;;;74.40;35.63;;;;;;;5.81;97.77;101141.39;1847664;78;20947;-88
2021/11/16 08:27:15;;;;;;;70.25;34.80;;;;;;;5.82;97.67;101137.84;1847665;78;21473;-88
2021/11/16 08:29:46;;;;;;;73.07;33.78;;;;;;;5.85;97.74;101136.42;1837124;77;21012;-88
2021/11/16 08:32:21;;;;;;;70.42;33.35;;;;;;;5.89;97.71;101140.64;1786620;78;20985;-89
2021/11/16 08:34:54;;;;;;;72.53;33.80;;;;;;;5.92;97.76;101138.33;1777687;81;21001;-88
2021/11/16 08:37:24;;;;;;;70.57;34.40;;;;;;;5.96;97.67;101125.56;1777498;81;21033;-88
2021/11/16 08:40:01;;;;;;;73.78;35.65;;;;;;;5.98;97.53;101121.94;1777984;80;21000;-88
2021/11/16 08:42:39;;;;;;;74.10;37.55;;;;;;;6.00;97.57;101121.43;1777401;79;21032;-89
2021/11/16 08:45:17;;;;;;;78.07;36.10;;;;;;;6.00;97.15;101122.74;1777166;80;21480;-88
2021/11/16 08:47:51;;;;;;;72.62;37.13;;;;;;;6.00;97.27;101121.89;1777552;81;21559;-87
2021/11/16 08:50:29;;;;;;;72.97;34.08;;;;;;;6.01;97.23;101119.20;1777431;81;21519;-87
2021/11/16 08:53:06;;;;;;;74.37;36.05;;;;;;;6.02;97.21;101126.16;1777681;81;21009;-87
2021/11/16 08:55:37;;;;;;;76.95;38.25;;;;;;;6.04;97.40;101125.63;1777292;79;20957;-87
2021/11/16 08:58:08;;;;;;;80.12;37.45;;;;;;;6.06;97.07;101128.20;1777618;81;21052;-87
2021/11/16 09:00:42;;;;;;;70.10;35.65;;;;;;;6.06;97.32;101122.50;1777521;79;21516;-87
2021/11/16 09:03:17;;;;;;;72.22;34.20;;;;;;;6.11;97.43;101119.21;1777568;80;20997;-87
2021/11/16 09:05:48;;;;;;;68.80;34.10;;;;;;;6.15;97.23;101121.70;1776712;80;21036;-87
2021/11/16 09:08:22;;;;;;;68.20;32.15;;;;;;;6.19;97.32;101120.69;1777066;80;21510;-87
2021/11/16 09:10:55;;;;;;;65.52;31.90;;;;;;;6.22;97.13;101113.55;1777154;79;21593;-87
2021/11/16 09:13:25;;;;;;;74.58;33.45;;;;;;;6.22;96.80;101117.91;1777744;81;21463;-87
2021/11/16 09:16:04;;;;;;;59.42;31.15;;;;;;;6.24;97.01;101112.16;1777432;81;21036;-87
2021/11/16 09:18:39;;;;;;;66.92;33.60;;;;;;;6.26;96.76;101105.94;1777658;80;20999;-88
2021/11/16 09:21:19;;;;;;;67.00;32.70;;;;;;;6.29;96.79;101115.45;1776157;80;21022;-87
2021/11/16 09:23:50;;;;;;;63.80;32.58;;;;;;;6.33;96.94;101115.24;1775702;80;21521;-87
2021/11/16 09:29:04;;;;;;;61.58;29.72;;;;;;;6.31;96.31;101107.05;1777554;80;21309;-88
2021/11/16 09:31:34;;;;;;;59.73;29.65;;;;;;;6.30;96.43;101115.83;1789957;79;21083;-87
2021/11/16 09:34:16;;;;;;;63.10;31.12;;;;;;;6.31;96.34;101108.35;1810440;79;21040;-88
2021/11/16 09:36:52;;;;;;;67.35;32.58;;;;;;;6.31;96.43;101105.27;1808149;79;20996;-87
2021/11/16 09:39:25;;;;;;;69.97;32.15;;;;;;;6.34;96.49;101108.22;1841375;78;20973;-88
2021/11/16 09:42:00;;;;;;;;;;;;;;;6.36;96.63;101103.78;1845597;78;21028;-88
2021/11/16 09:44:43;;;;;;;61.30;29.55;;;;;;;6.40;96.56;101106.66;1841448;78;20123;-87
2021/11/16 09:47:25;;;;;;;61.15;29.92;;;;;;;6.42;96.43;101103.52;1810177;78;21055;-88
2021/11/16 09:50:06;;;;;;;;;;;;;;;6.42;96.03;101096.97;1812980;79;21024;-86
2021/11/16 09:52:42;;;;;;;69.70;31.25;;;;;;;6.40;95.96;101095.33;1810189;79;20094;-87
2021/11/16 09:55:21;;;;;;;69.95;33.45;;;;;;;6.40;96.26;101087.45;1810028;78;21609;-87
2021/11/16 09:57:58;;;;;;;71.10;34.18;;;;;;;6.39;96.29;101089.23;1741348;82;20978;-87
2021/11/16 10:00:30;;;;;;;76.53;33.67;;;;;;;6.42;96.51;101084.33;1748123;81;20971;-88
2021/11/16 10:03:13;;;;;;;75.35;35.85;;;;;;;6.44;96.59;101081.16;1766541;80;21094;-88
2021/11/16 10:05:47;;;;;;;73.80;35.03;;;;;;;6.47;96.51;101084.95;1758854;80;21562;-88
2021/11/16 10:08:16;;;;;;;68.90;33.83;;;;;;;6.50;96.62;101080.43;1747165;82;20977;-88
2021/11/16 10:10:47;;;;;;;71.53;35.45;;;;;;;6.50;96.35;101075.19;1746854;82;21091;-87
2021/11/16 10:13:27;;;;;;;62.60;31.05;;;;;;;6.53;96.27;101076.83;1747234;82;21511;-88
2021/11/16 10:15:58;;;;;;;62.73;29.42;;;;;;;6.52;95.99;101072.52;1747186;82;20984;-88
2021/11/16 10:18:28;;;;;;;59.13;29.95;;;;;;;6.52;96.01;101065.49;1747185;81;20996;-88
2021/11/16 10:20:55;;;;;;;59.55;32.30;;;;;;;6.52;95.87;101065.95;1776929;81;20973;-88
2021/11/16 10:23:35;;;;;;;64.42;32.20;;;;;;;6.51;95.93;101065.55;1768906;81;21008;-88
2021/11/16 10:26:05;;;;;;;61.50;31.40;;;;;;;6.52;95.92;101058.09;1790243;80;20989;-88
2021/11/16 10:28:35;;;;;;;59.53;31.05;;;;;;;6.51;95.95;101057.22;1791535;80;21015;-88
2021/11/16 10:31:02;;;;;;;61.65;32.85;;;;;;;6.53;95.92;101046.67;1799378;79;21025;-88
2021/11/16 10:33:34;;;;;;;63.50;32.05;;;;;;;6.53;95.93;101050.14;1749645;82;21027;-88
2021/11/16 10:36:10;;;;;;;58.95;32.53;;;;;;;6.52;95.63;101047.61;1749227;82;21479;-88
2021/11/16 10:38:45;;;;;;;56.80;33.40;;;;;;;6.51;95.63;101044.10;1749392;80;20988;-88
2021/11/16 10:41:19;;;;;;;54.50;29.57;;;;;;;6.48;95.28;101049.95;1749252;82;21035;-88
2021/11/16 10:43:55;;;;;;;58.38;29.72;;;;;;;6.47;95.70;101047.79;1749375;80;21003;-88
2021/11/16 10:46:25;;;;;;;48.90;27.00;;;;;;;6.49;95.75;101048.59;1749302;82;20992;-87
2021/11/16 10:48:55;;;;;;;52.50;30.65;;;;;;;6.50;95.62;101041.09;1769427;80;20989;-88
2021/11/16 10:51:31;;;;;;;62.27;30.55;;;;;;;6.49;95.47;101042.49;1784026;80;20979;-87
2021/11/16 10:53:58;;;;;;;58.90;32.20;;;;;;;6.49;95.33;101045.11;1778667;80;21470;-88
2021/11/16 10:56:32;;;;;;;59.55;32.45;;;;;;;6.46;95.28;101034.30;1777046;79;21000;-88
2021/11/16 10:59:13;;;;;;;65.83;34.63;;;;;;;6.47;95.57;101029.44;1778283;80;21011;-88
2021/11/16 11:01:52;;;;;;;64.53;32.95;;;;;;;6.51;95.79;101029.69;1773228;80;21009;-88
2021/11/16 11:04:22;;;;;;;55.35;31.52;;;;;;;6.54;95.65;101033.95;1772619;79;21478;-88
2021/11/16 11:06:50;;;;;;;52.80;30.20;;;;;;;6.53;95.61;101025.23;1774465;80;20943;-88
2021/11/16 11:09:18;;;;;;;63.38;33.18;;;;;;;6.54;95.68;101026.92;1775222;79;21533;-88
2021/11/16 11:11:50;;;;;;;56.15;31.27;;;;;;;6.57;95.88;101021.55;1770404;80;21609;-88
2021/11/16 11:14:23;;;;;;;58.87;32.67;;;;;;;6.62;95.91;101018.73;1782264;79;21446;-88
2021/11/16 11:16:59;;;;;;;52.53;29.63;;;;;;;6.64;95.68;101009.47;1788422;79;20972;-88
2021/11/16 11:19:34;;;;;;;56.42;31.07;;;;;;;6.64;95.56;101003.77;1776698;80;20933;-88
2021/11/16 11:22:18;;;;;;;53.13;30.15;;;;;;;6.65;95.62;101000.24;1780699;79;21001;-88
2021/11/16 11:27:32;;;;;;;55.28;30.55;;;;;;;6.67;95.25;101000.16;1773591;80;21020;-88
2021/11/16 11:29:59;;;;;;;;;;;;;;;6.66;95.21;100999.78;1781628;79;21005;-88
2021/11/16 11:32:35;;;;;;;53.13;28.90;;;;;;;6.64;95.09;100995.89;1770587;79;20102;-88
2021/11/16 11:35:12;;;;;;;52.73;29.07;;;;;;;6.65;95.63;100993.69;1768001;81;21041;-88
2021/11/16 11:37:52;;;;;;;55.08;30.35;;;;;;;6.67;95.45;100994.45;1771960;79;21038;-88
2021/11/16 11:40:36;;;;;;;64.10;33.55;;;;;;;6.65;95.17;100992.84;1769145;81;21024;-88
2021/11/16 11:43:06;;;;;;;57.50;32.05;;;;;;;6.62;95.18;100986.42;1773369;79;20958;-88
2021/11/16 11:45:38;;;;;;;58.17;32.45;;;;;;;6.62;95.55;100984.64;1777472;79;20990;-88
2021/11/16 11:48:21;;;;;;;60.40;33.23;;;;;;;6.67;95.71;100973.93;1790125;79;20985;-87
2021/11/16 11:50:56;;;;;;;62.62;34.67;;;;;;;6.68;95.43;100974.31;1804584;79;21053;-88
2021/11/16 11:53:26;;;;;;;58.08;32.48;;;;;;;6.66;95.52;100973.08;1806146;79;21009;-88